Weather reports worldwide

Advertisment
Mende, France (7554): temperature & dewpoint: 19.09.2018 12:00:00 - 25.09.2018 12:00:00 (CEST)Mende, France (7554): temperature 5cm: 19.09.2018 12:00:00 - 25.09.2018 12:00:00 (CEST)Mende, France (7554): temperature -20cm & temperature -100cm: 19.09.2018 12:00:00 - 25.09.2018 12:00:00 (CEST)Mende, France (7554): wind speed & gusts: 19.09.2018 12:00:00 - 25.09.2018 12:00:00 (CEST)Mende, France (7554): wind direction: 19.09.2018 12:00:00 - 25.09.2018 12:00:00 (CEST)Mende, France (7554): visibility: 19.09.2018 12:00:00 - 25.09.2018 12:00:00 (CEST)Mende, France (7554): sunshine duration: 19.09.2018 12:00:00 - 25.09.2018 12:00:00 (CEST)Mende, France (7554): precipitation: 19.09.2018 12:00:00 - 25.09.2018 12:00:00 (CEST)
Date & Time tt [°C] td [°C] tt 5cm [°C] tt -20cm [°C] tt -100cm [°C] ff [km/h] ff [kn] fx [km/h] fx [kn] dd vv [km] sd [min] rr [mm]
25.09.2018 12:00:00 - - - - - - - - - - - - -
25.09.2018 11:00:00 15,5 3,6 12,8 18,2 17,7 8 4 19 11 ESE 20 60 0,0
25.09.2018 10:00:00 10,7 1,8 9,2 18,4 17,7 10 6 18 10 E 20 14 0,0
25.09.2018 09:00:00 8,2 0,7 6,2 18,6 17,7 11 6 26 14 ESE 20 22 0,0
25.09.2018 08:00:00 6,2 -0,1 5,9 18,8 17,6 17 9 25 14 ESE 20 0 0,0
25.09.2018 07:00:00 6,4 0,1 5,1 19,0 17,6 14 7 22 12 ESE 20 0 0,0
25.09.2018 06:00:00 5,6 -0,3 4,9 19,1 17,7 8 4 21 11 ESE 20 0 0,0
25.09.2018 05:00:00 5,7 -0,4 4,1 19,3 17,7 10 6 18 10 ESE 20 0 0,0
25.09.2018 04:00:00 5,4 -1,1 2,2 19,4 17,6 5 3 13 7 E 20 0 0,0
25.09.2018 03:00:00 6,1 -1,3 2,4 19,6 17,7 8 5 19 11 ESE 20 0 0,0
25.09.2018 02:00:00 6,3 -0,7 3,4 19,7 17,8 7 4 23 12 E 20 0 0,0
25.09.2018 01:00:00 6,8 -0,2 5,6 19,7 17,7 18 10 33 18 NE 20 0 0,0
25.09.2018 00:00:00 7,2 0,2 6,1 19,7 17,7 11 6 58 31 NE 20 0 0,0
24.09.2018 23:00:00 7,7 -0,3 6,6 19,7 17,7 12 7 38 20 ENE 20 0 0,0
24.09.2018 22:00:00 8,6 -0,2 7,4 19,7 17,6 12 6 41 22 NE 20 0 0,0
24.09.2018 21:00:00 9,2 0,1 8,3 19,6 17,6 18 10 43 23 ENE 20 0 0,0
24.09.2018 20:00:00 10,0 -0,5 9,2 19,5 17,7 13 7 50 27 E 20 18 0,0
24.09.2018 19:00:00 12,0 0,7 13,6 19,4 17,7 8 5 38 21 E 20 60 0,0
24.09.2018 18:00:00 12,8 0,2 16,6 19,4 17,6 20 11 45 24 NNE 20 58 0,0
24.09.2018 17:00:00 13,5 0,1 17,7 19,4 17,6 19 10 43 23 NNE 20 60 0,0
24.09.2018 16:00:00 13,4 1,1 18,8 19,4 17,7 19 11 46 25 NE 20 60 0,0
24.09.2018 15:00:00 12,8 0,8 18,4 19,5 17,7 23 13 49 27 N 20 60 0,0
24.09.2018 14:00:00 12,9 2,4 17,4 19,6 17,7 14 8 49 26 NNE 20 60 0,0
24.09.2018 13:00:00 12,5 2,3 16,6 19,7 17,6 19 10 54 29 N 20 60 0,0
24.09.2018 12:00:00 11,4 1,3 17,2 19,8 17,7 19 10 41 22 N 20 60 0,0
24.09.2018 11:00:00 10,6 2,7 13,8 20,0 17,7 16 9 53 29 N 20 60 0,0
24.09.2018 10:00:00 9,2 3,8 9,6 20,1 17,7 26 14 58 32 N 20 54 0,0
24.09.2018 09:00:00 8,6 4,6 7,8 20,3 17,7 13 7 34 18 N 20 36 0,0
24.09.2018 08:00:00 7,8 5,1 6,6 20,4 17,7 6 4 30 16 N 20 4 0,0
24.09.2018 07:00:00 8,9 5,8 7,7 20,5 17,7 9 5 22 12 N 20 0 0,0
24.09.2018 06:00:00 10,3 7,0 9,0 20,6 17,7 3 1 22 12 NW 20 0 0,0
24.09.2018 05:00:00 10,6 7,3 9,6 20,6 17,7 14 8 41 22 NNE 20 0 0,0
24.09.2018 04:00:00 11,7 8,4 10,9 20,7 17,7 18 10 55 30 N 20 0 0,0
24.09.2018 03:00:00 12,4 9,4 11,3 20,7 17,7 20 11 49 26 N 20 0 0,0
24.09.2018 02:00:00 14,2 11,0 12,7 20,6 17,7 25 13 43 23 NNW 6 0 0,2
24.09.2018 01:00:00 16,5 12,6 15,8 20,6 17,6 13 7 37 20 WNW 20 0 0,0
24.09.2018 00:00:00 17,0 13,5 15,9 20,5 17,7 16 8 28 15 W 20 0 0,0
23.09.2018 23:00:00 17,7 12,8 16,9 20,3 17,7 11 6 27 15 W 20 0 0,0
23.09.2018 22:00:00 18,6 12,3 18,4 20,1 17,7 8 4 17 9 W 20 0 0,0
23.09.2018 21:00:00 19,1 11,9 18,6 19,9 17,7 12 6 42 23 W 20 0 0,0
23.09.2018 20:00:00 20,1 11,3 19,3 19,7 17,7 15 8 45 25 WNW 20 20 0,0
23.09.2018 19:00:00 22,8 11,5 22,0 19,5 17,7 21 11 45 24 WNW 20 20 0,0
23.09.2018 18:00:00 23,9 10,6 24,0 19,4 17,7 19 10 40 22 W 20 52 0,0
23.09.2018 17:00:00 26,4 10,5 29,4 19,2 17,7 18 10 38 21 WNW 20 58 0,0
23.09.2018 16:00:00 26,0 11,4 30,9 19,2 17,6 22 12 41 22 W 20 60 0,0
23.09.2018 15:00:00 25,7 11,5 29,0 19,2 17,7 16 9 34 18 WSW 20 55 0,0
23.09.2018 14:00:00 25,6 11,4 31,4 19,3 17,7 15 8 35 19 WSW 20 60 0,0
23.09.2018 13:00:00 24,2 11,8 29,8 19,3 17,7 16 9 35 19 W 20 60 0,0
23.09.2018 12:00:00 22,1 11,8 26,4 19,4 17,6 15 8 29 16 W 20 60 0,0
23.09.2018 11:00:00 19,8 10,8 24,9 19,6 17,7 11 6 20 11 W 20 60 0,0
23.09.2018 10:00:00 17,2 8,9 20,0 19,7 17,7 4 2 14 8 WSW 19 60 0,0
23.09.2018 09:00:00 14,4 9,4 9,8 19,8 17,7 5 3 15 8 W 20 39 0,0
23.09.2018 08:00:00 12,1 7,4 10,0 19,9 17,7 3 2 13 7 WNW 20 0 0,0
23.09.2018 07:00:00 14,0 9,8 10,0 20,1 17,7 5 3 14 8 WSW 20 0 0,0
23.09.2018 06:00:00 12,8 8,1 8,9 20,1 17,7 2 1 12 6 W 20 0 0,0
23.09.2018 05:00:00 12,2 5,4 9,4 20,2 17,7 4 2 11 6 SSE 20 0 0,0
23.09.2018 04:00:00 12,2 5,8 9,7 20,2 17,7 2 1 12 7 WNW 20 0 0,0
23.09.2018 03:00:00 11,2 2,2 9,4 20,3 17,7 5 3 10 5 WNW 20 0 0,0
23.09.2018 02:00:00 12,2 2,1 10,5 20,3 17,7 7 4 16 9 WNW 20 0 0,0
23.09.2018 01:00:00 14,2 0,8 12,4 20,2 17,7 8 5 16 9 W 20 0 0,0
23.09.2018 00:00:00 13,9 0,8 10,5 20,1 17,8 7 4 11 6 W 20 0 0,0
22.09.2018 23:00:00 14,0 1,9 10,3 20,0 17,7 3 2 10 5 WSW 20 0 0,0
22.09.2018 22:00:00 14,6 0,4 12,4 19,8 17,7 5 3 11 6 WNW 20 0 0,0
22.09.2018 21:00:00 15,6 -1,1 13,7 19,7 17,7 5 3 17 9 W 20 0 0,0
22.09.2018 20:00:00 17,3 -3,5 16,1 19,5 17,7 10 5 21 11 SW 20 22 0,0
22.09.2018 19:00:00 20,5 -0,8 21,5 19,3 17,7 11 6 27 14 WSW 20 60 0,0
22.09.2018 18:00:00 22,6 0,4 26,3 19,2 17,7 16 9 31 17 SW 20 60 0,0
22.09.2018 17:00:00 23,8 0,8 - - - 18 10 31 17 SW 20 - -
22.09.2018 16:00:00 23,7 4,1 28,6 19,1 17,7 16 8 30 16 WSW 19 60 0,0
22.09.2018 15:00:00 23,7 -0,6 29,7 19,1 17,7 15 8 24 13 SW 20 60 0,0
22.09.2018 14:00:00 23,1 -7,9 28,6 19,2 17,6 12 6 32 17 NW 20 60 0,0
22.09.2018 13:00:00 21,2 -10,5 23,0 19,3 17,7 19 10 35 19 NNW 20 54 0,0
22.09.2018 12:00:00 18,4 -5,0 22,9 19,5 17,6 11 6 17 9 W 18 52 0,0
22.09.2018 11:00:00 14,8 4,5 18,3 19,6 17,7 4 2 11 6 S 19 60 0,0
22.09.2018 10:00:00 10,8 6,9 12,5 19,8 17,8 4 2 8 4 WSW 20 60 0,0
22.09.2018 09:00:00 8,6 6,2 5,4 20,0 17,7 2 1 8 5 W 20 34 0,0
22.09.2018 08:00:00 7,1 6,0 5,5 20,1 17,6 6 3 10 5 ESE 20 6 0,0
22.09.2018 07:00:00 7,5 6,6 4,5 20,2 17,7 5 3 9 5 ESE 20 0 0,0
22.09.2018 06:00:00 8,4 7,5 5,0 20,3 17,7 3 2 6 3 S 20 0 0,0
22.09.2018 05:00:00 8,6 7,7 5,4 20,4 17,6 0 0 10 5 N 20 0 0,0
22.09.2018 04:00:00 8,6 7,4 6,6 20,5 17,7 6 3 10 6 W 20 0 0,0
22.09.2018 03:00:00 10,1 8,9 7,9 20,5 17,6 8 4 19 10 W 20 0 0,0
22.09.2018 02:00:00 11,1 10,0 9,8 20,5 17,6 8 5 16 8 WSW 20 0 0,0
22.09.2018 01:00:00 12,4 10,8 10,8 20,5 17,7 7 4 13 7 W 20 0 0,0
22.09.2018 00:00:00 13,6 9,6 11,4 20,5 17,7 8 4 16 9 WNW 20 0 0,0
21.09.2018 23:00:00 15,4 11,4 15,4 20,5 17,7 8 5 22 12 WNW 20 0 0,0
21.09.2018 22:00:00 15,8 11,6 15,9 20,4 17,7 11 6 21 12 NW 20 0 0,0
21.09.2018 21:00:00 16,2 11,8 16,1 20,3 17,6 12 7 34 19 NW 20 0 0,0
21.09.2018 20:00:00 17,0 11,3 16,9 20,2 17,7 16 9 39 21 W 20 0 0,0
21.09.2018 19:00:00 18,7 10,0 18,8 20,2 17,6 16 9 31 17 W 20 0 0,0
21.09.2018 18:00:00 19,6 10,0 20,8 20,1 17,6 16 8 40 22 WNW 20 0 0,0
21.09.2018 17:00:00 19,7 9,6 21,2 20,1 17,7 14 8 28 15 WSW 20 15 0,0
21.09.2018 16:00:00 23,2 7,7 24,1 20,1 17,7 13 7 25 13 SW 20 34 0,0
21.09.2018 15:00:00 22,2 8,7 24,6 20,1 17,7 15 8 26 14 WSW 20 14 0,0
21.09.2018 14:00:00 21,2 8,8 24,2 20,2 17,7 16 8 29 16 WSW 19 26 0,0
21.09.2018 13:00:00 23,3 10,4 27,7 20,3 17,6 12 7 24 13 SW 20 54 0,0
21.09.2018 12:00:00 21,9 10,4 25,0 20,4 17,6 13 7 24 13 SW 20 41 0,0
21.09.2018 11:00:00 21,4 9,6 21,8 20,6 17,6 13 7 22 12 SW 20 44 0,0
21.09.2018 10:00:00 19,2 8,8 15,6 20,8 17,6 3 1 11 6 SE 20 50 0,0
21.09.2018 09:00:00 14,4 8,1 12,4 20,9 17,7 7 4 14 7 ESE 20 40 0,0
21.09.2018 08:00:00 12,1 8,0 10,9 21,0 17,6 11 6 15 8 ESE 20 7 0,0
21.09.2018 07:00:00 11,6 7,7 10,5 21,2 17,6 12 7 15 8 SE 20 0 0,0
21.09.2018 06:00:00 12,5 7,6 11,2 21,3 17,7 11 6 14 7 ESE 20 0 0,0
21.09.2018 05:00:00 12,2 7,9 10,7 21,3 17,6 6 4 18 10 ESE 20 0 0,0
21.09.2018 04:00:00 13,3 7,5 12,3 21,4 17,6 11 6 14 8 ESE 20 0 0,0
21.09.2018 03:00:00 13,8 7,3 12,9 21,4 17,6 12 6 15 8 SE 20 0 0,0
21.09.2018 02:00:00 14,6 7,2 12,9 21,4 17,7 10 5 13 7 ESE 20 0 0,0
21.09.2018 01:00:00 15,3 7,1 14,1 21,3 17,6 10 6 14 7 SE 20 0 0,0
21.09.2018 00:00:00 16,0 6,4 14,5 21,2 17,7 8 4 13 7 ESE 20 0 0,0
20.09.2018 23:00:00 17,9 6,4 16,6 21,0 17,6 7 4 12 7 ESE 20 0 0,0
20.09.2018 22:00:00 19,9 5,9 16,5 20,8 17,6 6 3 15 8 E 20 0 0,0
20.09.2018 21:00:00 19,9 5,9 17,8 20,6 17,5 6 3 21 11 WSW 20 0 0,0
20.09.2018 20:00:00 22,2 6,0 18,6 20,4 17,6 9 5 19 11 NW 20 26 0,0
20.09.2018 19:00:00 26,4 6,4 28,4 20,1 17,6 11 6 21 11 W 18 60 0,0
20.09.2018 18:00:00 28,4 5,3 32,7 20,0 17,7 10 5 23 13 WSW 20 60 0,0
20.09.2018 17:00:00 29,3 3,3 34,4 19,9 17,6 9 5 25 13 SW 20 60 0,0
20.09.2018 16:00:00 28,9 3,0 33,6 19,8 17,6 11 6 25 13 SW 20 60 0,0
20.09.2018 15:00:00 28,6 1,1 33,6 19,8 17,7 13 7 23 13 SSW 14 60 0,0
20.09.2018 14:00:00 27,5 4,5 33,5 19,8 17,6 8 4 23 12 SSW 19 60 0,0
20.09.2018 13:00:00 26,9 5,8 31,4 19,9 17,6 5 3 16 8 SSW 16 60 0,0
20.09.2018 12:00:00 24,9 7,5 30,5 20,1 17,7 8 4 15 8 SSE 19 60 0,0
20.09.2018 11:00:00 22,1 11,2 24,8 20,2 17,5 3 2 8 5 S 20 60 0,0
20.09.2018 10:00:00 18,3 11,4 17,7 20,3 17,6 4 2 10 5 SE 19 60 0,0
20.09.2018 09:00:00 14,7 10,7 12,3 20,4 17,6 6 3 10 6 ESE 20 40 0,0
20.09.2018 08:00:00 12,7 10,6 11,9 20,6 17,7 8 5 14 8 ESE 20 0 0,0
20.09.2018 07:00:00 13,4 10,6 12,3 20,7 17,6 8 4 12 6 ESE 20 0 0,0
20.09.2018 06:00:00 13,7 10,3 11,8 20,7 17,7 10 5 13 7 ESE 20 0 0,0
20.09.2018 05:00:00 13,8 9,8 12,2 20,8 17,7 5 3 11 6 E 20 0 0,0
20.09.2018 04:00:00 14,3 9,9 12,5 20,8 17,5 9 5 10 5 E 20 0 0,0
20.09.2018 03:00:00 14,4 9,6 13,2 20,8 17,6 6 3 12 6 ESE 20 0 0,0
20.09.2018 02:00:00 15,3 9,9 14,1 20,8 17,6 9 5 11 6 ESE 20 0 0,0
20.09.2018 01:00:00 16,1 9,7 14,8 20,7 17,6 6 3 12 7 E 20 0 0,0
20.09.2018 00:00:00 16,7 9,9 13,6 20,6 17,6 5 3 10 6 SE 20 0 0,0
19.09.2018 23:00:00 18,0 9,6 15,3 20,4 17,7 9 5 12 6 SE 20 0 0,0
19.09.2018 22:00:00 19,5 9,7 16,0 20,2 17,6 4 2 21 11 E 20 0 0,0
19.09.2018 21:00:00 21,3 10,1 20,4 20,0 17,6 17 9 26 14 N 20 0 0,0
19.09.2018 20:00:00 22,3 9,1 21,3 19,7 17,7 10 5 19 10 NW 20 11 0,0
19.09.2018 19:00:00 24,7 11,6 25,1 19,6 17,6 13 7 24 13 W 18 46 0,0
19.09.2018 18:00:00 25,8 10,8 25,5 19,4 17,7 11 6 27 15 W 20 27 0,0
19.09.2018 17:00:00 28,1 6,8 31,0 19,2 17,7 14 8 30 16 SSW 20 58 0,0
19.09.2018 16:00:00 28,2 6,9 33,6 19,2 17,7 10 5 22 12 SSW 18 60 0,0
19.09.2018 15:00:00 27,6 8,0 33,4 19,2 17,5 8 4 23 12 S 20 60 0,0
19.09.2018 14:00:00 26,6 8,5 32,9 19,2 17,6 8 4 16 9 SW 20 60 0,0
19.09.2018 13:00:00 25,3 7,9 31,0 19,4 17,6 6 3 16 9 W 20 60 0,0
19.09.2018 12:00:00 22,9 10,3 27,7 19,5 17,6 5 3 10 5 W 20 60 0,0

tt = temperature
td = dewpoint
tt 5cm = temperature 5cm
tt -20cm = temperature -20cm
tt -100cm = temperature -100cm
ff = wind speed
fx = gusts
dd = wind direction
vv = visibility
sd = sunshine duration
rr = precipitation

Next stations